sensor_id;sensor_type;location;lat;lon;timestamp;P1;durP1;ratioP1;P2;durP2;ratioP2
20776;SDS011;10548;47.504;8.248;2022-10-13T00:01:06;46.17;;;21.70;;
20776;SDS011;10548;47.504;8.248;2022-10-13T00:03:35;38.50;;;22.00;;
20776;SDS011;10548;47.504;8.248;2022-10-13T00:06:04;39.50;;;21.17;;
20776;SDS011;10548;47.504;8.248;2022-10-13T00:08:36;34.13;;;20.33;;
20776;SDS011;10548;47.504;8.248;2022-10-13T00:11:17;35.33;;;19.87;;
20776;SDS011;10548;47.504;8.248;2022-10-13T00:13:47;44.53;;;20.93;;
20776;SDS011;10548;47.504;8.248;2022-10-13T00:16:17;39.17;;;22.83;;
20776;SDS011;10548;47.504;8.248;2022-10-13T00:18:46;41.90;;;22.10;;
20776;SDS011;10548;47.504;8.248;2022-10-13T00:21:15;38.50;;;20.50;;
20776;SDS011;10548;47.504;8.248;2022-10-13T00:23:46;43.53;;;22.40;;
20776;SDS011;10548;47.504;8.248;2022-10-13T00:26:17;40.93;;;24.13;;
20776;SDS011;10548;47.504;8.248;2022-10-13T00:28:46;46.27;;;23.87;;
20776;SDS011;10548;47.504;8.248;2022-10-13T00:31:22;43.53;;;23.83;;
20776;SDS011;10548;47.504;8.248;2022-10-13T00:33:52;49.60;;;23.77;;
20776;SDS011;10548;47.504;8.248;2022-10-13T00:36:20;50.40;;;22.73;;
20776;SDS011;10548;47.504;8.248;2022-10-13T00:38:49;39.17;;;22.87;;
20776;SDS011;10548;47.504;8.248;2022-10-13T00:41:17;39.77;;;22.17;;
20776;SDS011;10548;47.504;8.248;2022-10-13T00:43:58;38.93;;;21.83;;
20776;SDS011;10548;47.504;8.248;2022-10-13T00:46:34;49.27;;;23.33;;
20776;SDS011;10548;47.504;8.248;2022-10-13T00:49:07;40.97;;;23.33;;
20776;SDS011;10548;47.504;8.248;2022-10-13T00:51:45;44.20;;;24.60;;
20776;SDS011;10548;47.504;8.248;2022-10-13T00:54:21;47.20;;;25.67;;
20776;SDS011;10548;47.504;8.248;2022-10-13T00:56:50;43.10;;;23.53;;
20776;SDS011;10548;47.504;8.248;2022-10-13T00:59:20;42.83;;;24.27;;
20776;SDS011;10548;47.504;8.248;2022-10-13T01:01:53;43.90;;;23.40;;
20776;SDS011;10548;47.504;8.248;2022-10-13T01:04:24;45.17;;;25.20;;
20776;SDS011;10548;47.504;8.248;2022-10-13T01:06:54;49.17;;;24.67;;
20776;SDS011;10548;47.504;8.248;2022-10-13T01:09:22;40.17;;;24.00;;
20776;SDS011;10548;47.504;8.248;2022-10-13T01:14:56;41.60;;;24.40;;
20776;SDS011;10548;47.504;8.248;2022-10-13T01:23:46;45.50;;;25.07;;
20776;SDS011;10548;47.504;8.248;2022-10-13T01:33:08;46.13;;;24.93;;
20776;SDS011;10548;47.504;8.248;2022-10-13T01:36:55;42.70;;;24.63;;
20776;SDS011;10548;47.504;8.248;2022-10-13T01:39:55;45.13;;;26.93;;
20776;SDS011;10548;47.504;8.248;2022-10-13T01:42:15;48.00;;;26.53;;
20776;SDS011;10548;47.504;8.248;2022-10-13T01:44:49;40.93;;;24.53;;
20776;SDS011;10548;47.504;8.248;2022-10-13T01:47:18;41.83;;;24.93;;
20776;SDS011;10548;47.504;8.248;2022-10-13T01:49:49;55.17;;;26.70;;
20776;SDS011;10548;47.504;8.248;2022-10-13T01:52:17;45.13;;;24.20;;
20776;SDS011;10548;47.504;8.248;2022-10-13T01:54:51;41.40;;;24.93;;
20776;SDS011;10548;47.504;8.248;2022-10-13T01:57:33;46.43;;;26.70;;
20776;SDS011;10548;47.504;8.248;2022-10-13T02:00:04;45.87;;;25.80;;
20776;SDS011;10548;47.504;8.248;2022-10-13T02:05:46;50.30;;;26.57;;
20776;SDS011;10548;47.504;8.248;2022-10-13T02:08:49;52.83;;;27.63;;
20776;SDS011;10548;47.504;8.248;2022-10-13T02:11:50;50.60;;;25.97;;
20776;SDS011;10548;47.504;8.248;2022-10-13T02:14:37;50.40;;;26.53;;
20776;SDS011;10548;47.504;8.248;2022-10-13T02:17:07;34.87;;;24.70;;
20776;SDS011;10548;47.504;8.248;2022-10-13T02:19:38;48.20;;;25.30;;
20776;SDS011;10548;47.504;8.248;2022-10-13T02:22:05;38.50;;;24.40;;
20776;SDS011;10548;47.504;8.248;2022-10-13T02:24:36;45.60;;;27.47;;
20776;SDS011;10548;47.504;8.248;2022-10-13T02:27:04;42.03;;;26.27;;
20776;SDS011;10548;47.504;8.248;2022-10-13T02:29:32;56.00;;;27.80;;
20776;SDS011;10548;47.504;8.248;2022-10-13T02:31:59;49.90;;;27.77;;
20776;SDS011;10548;47.504;8.248;2022-10-13T02:34:27;44.67;;;26.50;;
20776;SDS011;10548;47.504;8.248;2022-10-13T02:36:54;45.77;;;26.70;;
20776;SDS011;10548;47.504;8.248;2022-10-13T02:39:22;54.40;;;28.00;;
20776;SDS011;10548;47.504;8.248;2022-10-13T02:41:49;48.00;;;28.67;;
20776;SDS011;10548;47.504;8.248;2022-10-13T02:44:16;54.03;;;29.83;;
20776;SDS011;10548;47.504;8.248;2022-10-13T02:46:44;51.77;;;29.67;;
20776;SDS011;10548;47.504;8.248;2022-10-13T02:49:11;49.80;;;29.70;;
20776;SDS011;10548;47.504;8.248;2022-10-13T02:51:38;50.17;;;28.80;;
20776;SDS011;10548;47.504;8.248;2022-10-13T02:54:06;43.00;;;27.87;;
20776;SDS011;10548;47.504;8.248;2022-10-13T02:56:33;50.07;;;28.87;;
20776;SDS011;10548;47.504;8.248;2022-10-13T02:59:00;46.47;;;27.83;;
20776;SDS011;10548;47.504;8.248;2022-10-13T03:01:28;47.50;;;28.03;;
20776;SDS011;10548;47.504;8.248;2022-10-13T03:03:55;55.13;;;27.30;;
20776;SDS011;10548;47.504;8.248;2022-10-13T03:06:22;47.27;;;29.33;;
20776;SDS011;10548;47.504;8.248;2022-10-13T03:08:49;44.63;;;26.77;;
20776;SDS011;10548;47.504;8.248;2022-10-13T03:11:17;47.47;;;26.43;;
20776;SDS011;10548;47.504;8.248;2022-10-13T03:13:44;52.63;;;30.57;;
20776;SDS011;10548;47.504;8.248;2022-10-13T03:16:11;44.17;;;28.50;;
20776;SDS011;10548;47.504;8.248;2022-10-13T03:18:38;46.40;;;26.50;;
20776;SDS011;10548;47.504;8.248;2022-10-13T03:21:05;61.07;;;31.13;;
20776;SDS011;10548;47.504;8.248;2022-10-13T03:23:35;44.13;;;27.07;;
20776;SDS011;10548;47.504;8.248;2022-10-13T03:26:02;47.40;;;28.13;;
20776;SDS011;10548;47.504;8.248;2022-10-13T03:28:30;55.17;;;30.30;;
20776;SDS011;10548;47.504;8.248;2022-10-13T03:31:05;54.03;;;30.53;;
20776;SDS011;10548;47.504;8.248;2022-10-13T03:33:34;56.13;;;33.13;;
20776;SDS011;10548;47.504;8.248;2022-10-13T03:36:02;56.17;;;33.13;;
20776;SDS011;10548;47.504;8.248;2022-10-13T03:38:31;61.80;;;34.30;;
20776;SDS011;10548;47.504;8.248;2022-10-13T03:41:03;54.57;;;32.33;;
20776;SDS011;10548;47.504;8.248;2022-10-13T03:43:42;55.73;;;32.70;;
20776;SDS011;10548;47.504;8.248;2022-10-13T03:46:10;52.83;;;32.47;;
20776;SDS011;10548;47.504;8.248;2022-10-13T03:48:39;54.83;;;31.97;;
20776;SDS011;10548;47.504;8.248;2022-10-13T03:51:07;54.27;;;30.03;;
20776;SDS011;10548;47.504;8.248;2022-10-13T03:53:40;44.27;;;28.30;;
20776;SDS011;10548;47.504;8.248;2022-10-13T03:56:09;48.27;;;30.77;;
20776;SDS011;10548;47.504;8.248;2022-10-13T03:58:46;47.17;;;29.07;;
20776;SDS011;10548;47.504;8.248;2022-10-13T04:01:19;55.13;;;29.63;;
20776;SDS011;10548;47.504;8.248;2022-10-13T04:03:48;52.47;;;30.63;;
20776;SDS011;10548;47.504;8.248;2022-10-13T04:06:17;51.67;;;32.53;;
20776;SDS011;10548;47.504;8.248;2022-10-13T04:08:44;60.63;;;35.37;;
20776;SDS011;10548;47.504;8.248;2022-10-13T04:11:12;72.17;;;36.00;;
20776;SDS011;10548;47.504;8.248;2022-10-13T04:13:41;64.70;;;35.57;;
20776;SDS011;10548;47.504;8.248;2022-10-13T04:16:13;56.77;;;35.60;;
20776;SDS011;10548;47.504;8.248;2022-10-13T04:18:49;61.27;;;35.13;;
20776;SDS011;10548;47.504;8.248;2022-10-13T04:21:22;56.63;;;33.80;;
20776;SDS011;10548;47.504;8.248;2022-10-13T04:23:50;64.63;;;37.23;;
20776;SDS011;10548;47.504;8.248;2022-10-13T04:26:20;78.03;;;38.70;;
20776;SDS011;10548;47.504;8.248;2022-10-13T04:28:49;58.67;;;34.13;;
20776;SDS011;10548;47.504;8.248;2022-10-13T04:31:18;55.57;;;33.37;;
20776;SDS011;10548;47.504;8.248;2022-10-13T04:33:47;54.57;;;33.80;;
20776;SDS011;10548;47.504;8.248;2022-10-13T04:36:15;52.27;;;34.57;;
20776;SDS011;10548;47.504;8.248;2022-10-13T04:38:44;61.60;;;34.70;;
20776;SDS011;10548;47.504;8.248;2022-10-13T04:41:12;70.63;;;38.00;;
20776;SDS011;10548;47.504;8.248;2022-10-13T04:43:41;74.00;;;42.27;;
20776;SDS011;10548;47.504;8.248;2022-10-13T04:46:11;68.60;;;40.33;;
20776;SDS011;10548;47.504;8.248;2022-10-13T04:48:40;75.83;;;42.47;;
20776;SDS011;10548;47.504;8.248;2022-10-13T04:51:09;84.43;;;43.30;;
20776;SDS011;10548;47.504;8.248;2022-10-13T04:53:38;69.73;;;43.17;;
20776;SDS011;10548;47.504;8.248;2022-10-13T04:56:10;83.53;;;45.80;;
20776;SDS011;10548;47.504;8.248;2022-10-13T04:58:40;72.80;;;41.87;;
20776;SDS011;10548;47.504;8.248;2022-10-13T05:01:13;82.20;;;44.77;;
20776;SDS011;10548;47.504;8.248;2022-10-13T05:03:51;82.47;;;45.80;;
20776;SDS011;10548;47.504;8.248;2022-10-13T05:06:34;85.63;;;46.53;;
20776;SDS011;10548;47.504;8.248;2022-10-13T05:09:24;80.03;;;44.17;;
20776;SDS011;10548;47.504;8.248;2022-10-13T05:11:52;79.87;;;45.90;;
20776;SDS011;10548;47.504;8.248;2022-10-13T05:14:21;75.97;;;43.10;;
20776;SDS011;10548;47.504;8.248;2022-10-13T05:16:48;82.23;;;46.47;;
20776;SDS011;10548;47.504;8.248;2022-10-13T05:19:15;81.90;;;44.87;;
20776;SDS011;10548;47.504;8.248;2022-10-13T05:21:43;87.33;;;47.30;;
20776;SDS011;10548;47.504;8.248;2022-10-13T05:24:10;92.40;;;49.40;;
20776;SDS011;10548;47.504;8.248;2022-10-13T05:26:39;98.60;;;49.23;;
20776;SDS011;10548;47.504;8.248;2022-10-13T05:29:07;102.60;;;49.70;;
20776;SDS011;10548;47.504;8.248;2022-10-13T05:31:34;97.93;;;49.03;;
20776;SDS011;10548;47.504;8.248;2022-10-13T05:34:02;88.80;;;48.00;;
20776;SDS011;10548;47.504;8.248;2022-10-13T05:36:33;87.57;;;47.90;;
20776;SDS011;10548;47.504;8.248;2022-10-13T05:39:02;98.70;;;48.40;;
20776;SDS011;10548;47.504;8.248;2022-10-13T05:41:31;96.10;;;50.50;;
20776;SDS011;10548;47.504;8.248;2022-10-13T05:44:03;114.50;;;54.37;;
20776;SDS011;10548;47.504;8.248;2022-10-13T05:46:32;104.13;;;48.30;;
20776;SDS011;10548;47.504;8.248;2022-10-13T05:49:00;96.37;;;48.17;;
20776;SDS011;10548;47.504;8.248;2022-10-13T05:51:37;105.13;;;51.80;;
20776;SDS011;10548;47.504;8.248;2022-10-13T05:54:16;104.93;;;49.00;;
20776;SDS011;10548;47.504;8.248;2022-10-13T05:57:30;95.37;;;48.70;;
20776;SDS011;10548;47.504;8.248;2022-10-13T05:59:41;94.07;;;49.43;;
20776;SDS011;10548;47.504;8.248;2022-10-13T06:02:11;96.97;;;50.03;;
20776;SDS011;10548;47.504;8.248;2022-10-13T06:04:45;138.20;;;59.10;;
20776;SDS011;10548;47.504;8.248;2022-10-13T06:07:14;111.33;;;52.53;;
20776;SDS011;10548;47.504;8.248;2022-10-13T06:09:41;111.53;;;53.83;;
20776;SDS011;10548;47.504;8.248;2022-10-13T06:12:09;119.23;;;55.77;;
20776;SDS011;10548;47.504;8.248;2022-10-13T06:14:37;120.47;;;52.00;;
20776;SDS011;10548;47.504;8.248;2022-10-13T06:17:05;117.60;;;54.17;;
20776;SDS011;10548;47.504;8.248;2022-10-13T06:19:32;104.07;;;48.87;;
20776;SDS011;10548;47.504;8.248;2022-10-13T06:22:05;110.00;;;50.40;;
20776;SDS011;10548;47.504;8.248;2022-10-13T06:24:33;113.03;;;50.80;;
20776;SDS011;10548;47.504;8.248;2022-10-13T06:27:02;87.40;;;44.63;;
20776;SDS011;10548;47.504;8.248;2022-10-13T06:29:29;90.67;;;47.70;;
20776;SDS011;10548;47.504;8.248;2022-10-13T06:31:58;95.50;;;48.90;;
20776;SDS011;10548;47.504;8.248;2022-10-13T06:34:26;104.40;;;47.57;;
20776;SDS011;10548;47.504;8.248;2022-10-13T06:36:53;92.20;;;46.93;;
20776;SDS011;10548;47.504;8.248;2022-10-13T06:39:21;103.10;;;50.07;;
20776;SDS011;10548;47.504;8.248;2022-10-13T06:41:48;95.03;;;45.10;;
20776;SDS011;10548;47.504;8.248;2022-10-13T06:44:16;100.80;;;48.43;;
20776;SDS011;10548;47.504;8.248;2022-10-13T06:46:43;93.80;;;47.17;;
20776;SDS011;10548;47.504;8.248;2022-10-13T06:49:11;80.37;;;44.03;;
20776;SDS011;10548;47.504;8.248;2022-10-13T06:51:38;90.30;;;47.10;;
20776;SDS011;10548;47.504;8.248;2022-10-13T06:54:05;95.73;;;50.40;;
20776;SDS011;10548;47.504;8.248;2022-10-13T06:56:32;82.10;;;46.00;;
20776;SDS011;10548;47.504;8.248;2022-10-13T06:59:06;83.40;;;44.43;;
20776;SDS011;10548;47.504;8.248;2022-10-13T07:01:36;94.70;;;44.57;;
20776;SDS011;10548;47.504;8.248;2022-10-13T07:04:10;79.77;;;43.43;;
20776;SDS011;10548;47.504;8.248;2022-10-13T07:06:38;84.90;;;44.90;;
20776;SDS011;10548;47.504;8.248;2022-10-13T07:09:05;81.40;;;43.53;;
20776;SDS011;10548;47.504;8.248;2022-10-13T07:11:33;82.37;;;45.57;;
20776;SDS011;10548;47.504;8.248;2022-10-13T07:14:01;80.43;;;44.57;;
20776;SDS011;10548;47.504;8.248;2022-10-13T07:16:29;71.80;;;41.83;;
20776;SDS011;10548;47.504;8.248;2022-10-13T07:18:56;84.60;;;41.70;;
20776;SDS011;10548;47.504;8.248;2022-10-13T07:21:25;72.07;;;44.07;;
20776;SDS011;10548;47.504;8.248;2022-10-13T07:23:52;76.07;;;43.97;;
20776;SDS011;10548;47.504;8.248;2022-10-13T07:26:19;74.23;;;42.37;;
20776;SDS011;10548;47.504;8.248;2022-10-13T07:28:47;71.80;;;41.17;;
20776;SDS011;10548;47.504;8.248;2022-10-13T07:31:16;66.07;;;38.37;;
20776;SDS011;10548;47.504;8.248;2022-10-13T07:33:46;68.77;;;38.87;;
20776;SDS011;10548;47.504;8.248;2022-10-13T07:36:15;61.33;;;35.57;;
20776;SDS011;10548;47.504;8.248;2022-10-13T07:38:43;71.20;;;38.70;;
20776;SDS011;10548;47.504;8.248;2022-10-13T07:41:11;54.83;;;35.13;;
20776;SDS011;10548;47.504;8.248;2022-10-13T07:43:39;57.87;;;34.63;;
20776;SDS011;10548;47.504;8.248;2022-10-13T07:46:07;61.80;;;34.67;;
20776;SDS011;10548;47.504;8.248;2022-10-13T07:48:36;57.47;;;32.37;;
20776;SDS011;10548;47.504;8.248;2022-10-13T07:51:06;57.30;;;32.10;;
20776;SDS011;10548;47.504;8.248;2022-10-13T07:53:36;49.27;;;30.90;;
20776;SDS011;10548;47.504;8.248;2022-10-13T07:56:05;52.00;;;33.30;;
20776;SDS011;10548;47.504;8.248;2022-10-13T07:58:36;52.67;;;33.17;;
20776;SDS011;10548;47.504;8.248;2022-10-13T08:01:04;51.17;;;33.30;;
20776;SDS011;10548;47.504;8.248;2022-10-13T08:03:36;47.37;;;31.63;;
20776;SDS011;10548;47.504;8.248;2022-10-13T08:06:12;52.73;;;32.00;;
20776;SDS011;10548;47.504;8.248;2022-10-13T08:08:39;47.97;;;30.00;;
20776;SDS011;10548;47.504;8.248;2022-10-13T08:11:12;52.90;;;32.43;;
20776;SDS011;10548;47.504;8.248;2022-10-13T08:13:46;46.23;;;30.47;;
20776;SDS011;10548;47.504;8.248;2022-10-13T08:16:18;56.60;;;30.17;;
20776;SDS011;10548;47.504;8.248;2022-10-13T08:18:46;50.07;;;30.70;;
20776;SDS011;10548;47.504;8.248;2022-10-13T08:21:15;48.10;;;30.73;;
20776;SDS011;10548;47.504;8.248;2022-10-13T08:24:04;46.80;;;31.67;;
20776;SDS011;10548;47.504;8.248;2022-10-13T08:26:33;37.30;;;28.27;;
20776;SDS011;10548;47.504;8.248;2022-10-13T08:29:00;47.50;;;27.90;;
20776;SDS011;10548;47.504;8.248;2022-10-13T08:31:47;40.60;;;27.17;;
20776;SDS011;10548;47.504;8.248;2022-10-13T08:34:19;37.53;;;27.27;;
20776;SDS011;10548;47.504;8.248;2022-10-13T08:36:48;47.63;;;27.47;;
20776;SDS011;10548;47.504;8.248;2022-10-13T08:39:19;36.73;;;27.30;;
20776;SDS011;10548;47.504;8.248;2022-10-13T08:41:48;41.87;;;26.70;;
20776;SDS011;10548;47.504;8.248;2022-10-13T08:44:28;40.97;;;26.30;;
20776;SDS011;10548;47.504;8.248;2022-10-13T08:50:23;39.43;;;26.30;;
20776;SDS011;10548;47.504;8.248;2022-10-13T08:52:58;41.67;;;25.17;;
20776;SDS011;10548;47.504;8.248;2022-10-13T08:58:27;37.87;;;25.60;;
20776;SDS011;10548;47.504;8.248;2022-10-13T09:07:16;43.17;;;30.50;;
20776;SDS011;10548;47.504;8.248;2022-10-13T09:09:51;52.13;;;35.00;;
20776;SDS011;10548;47.504;8.248;2022-10-13T09:12:23;57.63;;;32.20;;
20776;SDS011;10548;47.504;8.248;2022-10-13T09:15:01;62.47;;;35.50;;
20776;SDS011;10548;47.504;8.248;2022-10-13T09:17:38;54.10;;;31.10;;
20776;SDS011;10548;47.504;8.248;2022-10-13T09:20:15;50.90;;;28.37;;
20776;SDS011;10548;47.504;8.248;2022-10-13T09:23:00;52.90;;;30.13;;
20776;SDS011;10548;47.504;8.248;2022-10-13T09:25:42;48.77;;;29.30;;
20776;SDS011;10548;47.504;8.248;2022-10-13T09:28:21;47.77;;;30.53;;
20776;SDS011;10548;47.504;8.248;2022-10-13T09:31:02;41.63;;;30.87;;
20776;SDS011;10548;47.504;8.248;2022-10-13T09:33:39;47.30;;;30.40;;
20776;SDS011;10548;47.504;8.248;2022-10-13T09:36:13;49.67;;;29.87;;
20776;SDS011;10548;47.504;8.248;2022-10-13T09:39:03;44.57;;;30.50;;
20776;SDS011;10548;47.504;8.248;2022-10-13T09:41:49;45.10;;;30.30;;
20776;SDS011;10548;47.504;8.248;2022-10-13T09:44:17;51.57;;;28.83;;
20776;SDS011;10548;47.504;8.248;2022-10-13T09:46:57;41.07;;;28.27;;
20776;SDS011;10548;47.504;8.248;2022-10-13T09:49:36;40.70;;;27.10;;
20776;SDS011;10548;47.504;8.248;2022-10-13T09:52:15;43.20;;;28.83;;
20776;SDS011;10548;47.504;8.248;2022-10-13T09:55:20;44.10;;;27.07;;
20776;SDS011;10548;47.504;8.248;2022-10-13T09:58:05;44.40;;;26.90;;
20776;SDS011;10548;47.504;8.248;2022-10-13T10:00:41;42.93;;;28.73;;
20776;SDS011;10548;47.504;8.248;2022-10-13T10:03:21;42.93;;;27.20;;
20776;SDS011;10548;47.504;8.248;2022-10-13T10:05:52;35.50;;;25.13;;
20776;SDS011;10548;47.504;8.248;2022-10-13T10:08:38;38.47;;;24.93;;
20776;SDS011;10548;47.504;8.248;2022-10-13T10:11:30;39.10;;;26.07;;
20776;SDS011;10548;47.504;8.248;2022-10-13T10:14:20;48.03;;;28.70;;
20776;SDS011;10548;47.504;8.248;2022-10-13T10:23:21;45.60;;;27.07;;
20776;SDS011;10548;47.504;8.248;2022-10-13T10:26:18;49.27;;;28.53;;
20776;SDS011;10548;47.504;8.248;2022-10-13T10:29:18;45.57;;;29.43;;
20776;SDS011;10548;47.504;8.248;2022-10-13T10:35:37;42.03;;;27.37;;
20776;SDS011;10548;47.504;8.248;2022-10-13T10:38:43;48.23;;;27.57;;
20776;SDS011;10548;47.504;8.248;2022-10-13T10:41:39;42.57;;;26.67;;
20776;SDS011;10548;47.504;8.248;2022-10-13T10:44:39;46.50;;;26.10;;
20776;SDS011;10548;47.504;8.248;2022-10-13T10:47:28;45.37;;;24.10;;
20776;SDS011;10548;47.504;8.248;2022-10-13T10:50:12;42.37;;;23.20;;
20776;SDS011;10548;47.504;8.248;2022-10-13T10:52:46;41.53;;;22.70;;
20776;SDS011;10548;47.504;8.248;2022-10-13T10:55:25;34.63;;;21.83;;
20776;SDS011;10548;47.504;8.248;2022-10-13T11:04:34;38.90;;;22.67;;
20776;SDS011;10548;47.504;8.248;2022-10-13T11:10:20;36.40;;;21.33;;
20776;SDS011;10548;47.504;8.248;2022-10-13T11:15:45;29.23;;;19.23;;
20776;SDS011;10548;47.504;8.248;2022-10-13T11:21:26;29.30;;;19.13;;
20776;SDS011;10548;47.504;8.248;2022-10-13T11:24:50;33.87;;;19.10;;
20776;SDS011;10548;47.504;8.248;2022-10-13T11:27:52;29.83;;;19.53;;
20776;SDS011;10548;47.504;8.248;2022-10-13T11:36:31;32.23;;;17.20;;
20776;SDS011;10548;47.504;8.248;2022-10-13T11:39:32;28.03;;;18.13;;
20776;SDS011;10548;47.504;8.248;2022-10-13T11:42:27;26.97;;;17.10;;
20776;SDS011;10548;47.504;8.248;2022-10-13T11:48:31;31.63;;;18.97;;
20776;SDS011;10548;47.504;8.248;2022-10-13T11:51:28;36.57;;;18.87;;
20776;SDS011;10548;47.504;8.248;2022-10-13T11:54:25;28.43;;;16.60;;
20776;SDS011;10548;47.504;8.248;2022-10-13T11:57:16;25.03;;;15.27;;
20776;SDS011;10548;47.504;8.248;2022-10-13T11:59:48;27.83;;;17.67;;
20776;SDS011;10548;47.504;8.248;2022-10-13T12:02:25;32.27;;;18.23;;
20776;SDS011;10548;47.504;8.248;2022-10-13T12:07:57;27.93;;;18.30;;
20776;SDS011;10548;47.504;8.248;2022-10-13T12:10:29;39.90;;;18.87;;
20776;SDS011;10548;47.504;8.248;2022-10-13T12:13:01;29.97;;;19.27;;
20776;SDS011;10548;47.504;8.248;2022-10-13T12:15:34;32.60;;;16.83;;
20776;SDS011;10548;47.504;8.248;2022-10-13T12:18:17;30.63;;;15.73;;
20776;SDS011;10548;47.504;8.248;2022-10-13T12:20:54;25.90;;;14.93;;
20776;SDS011;10548;47.504;8.248;2022-10-13T12:23:25;24.43;;;14.50;;
20776;SDS011;10548;47.504;8.248;2022-10-13T12:25:53;30.07;;;14.40;;
20776;SDS011;10548;47.504;8.248;2022-10-13T12:28:28;29.73;;;14.90;;
20776;SDS011;10548;47.504;8.248;2022-10-13T12:31:17;27.23;;;15.43;;
20776;SDS011;10548;47.504;8.248;2022-10-13T12:33:59;33.30;;;15.90;;
20776;SDS011;10548;47.504;8.248;2022-10-13T12:36:28;30.63;;;16.37;;
20776;SDS011;10548;47.504;8.248;2022-10-13T12:38:59;28.03;;;16.97;;
20776;SDS011;10548;47.504;8.248;2022-10-13T12:41:31;28.00;;;14.47;;
20776;SDS011;10548;47.504;8.248;2022-10-13T12:44:01;24.10;;;14.50;;
20776;SDS011;10548;47.504;8.248;2022-10-13T12:46:42;32.23;;;14.80;;
20776;SDS011;10548;47.504;8.248;2022-10-13T12:49:15;31.97;;;13.70;;
20776;SDS011;10548;47.504;8.248;2022-10-13T12:51:47;28.50;;;13.80;;
20776;SDS011;10548;47.504;8.248;2022-10-13T12:54:18;29.17;;;13.37;;
20776;SDS011;10548;47.504;8.248;2022-10-13T12:56:50;20.37;;;12.43;;
20776;SDS011;10548;47.504;8.248;2022-10-13T12:59:22;26.53;;;14.87;;
20776;SDS011;10548;47.504;8.248;2022-10-13T13:01:54;29.00;;;13.57;;
20776;SDS011;10548;47.504;8.248;2022-10-13T13:04:31;27.00;;;12.97;;
20776;SDS011;10548;47.504;8.248;2022-10-13T13:09:59;23.10;;;12.40;;
20776;SDS011;10548;47.504;8.248;2022-10-13T13:12:48;21.93;;;12.30;;
20776;SDS011;10548;47.504;8.248;2022-10-13T13:15:29;18.17;;;11.40;;
20776;SDS011;10548;47.504;8.248;2022-10-13T13:20:49;25.43;;;11.60;;
20776;SDS011;10548;47.504;8.248;2022-10-13T13:23:17;28.83;;;11.90;;
20776;SDS011;10548;47.504;8.248;2022-10-13T13:25:45;25.00;;;12.23;;
20776;SDS011;10548;47.504;8.248;2022-10-13T13:28:13;26.40;;;12.10;;
20776;SDS011;10548;47.504;8.248;2022-10-13T13:30:42;24.27;;;13.80;;
20776;SDS011;10548;47.504;8.248;2022-10-13T13:33:09;25.60;;;13.30;;
20776;SDS011;10548;47.504;8.248;2022-10-13T13:35:42;23.97;;;12.90;;
20776;SDS011;10548;47.504;8.248;2022-10-13T13:38:09;30.70;;;13.03;;
20776;SDS011;10548;47.504;8.248;2022-10-13T13:40:36;22.80;;;12.67;;
20776;SDS011;10548;47.504;8.248;2022-10-13T13:43:03;27.40;;;12.70;;
20776;SDS011;10548;47.504;8.248;2022-10-13T13:45:31;24.17;;;13.13;;
20776;SDS011;10548;47.504;8.248;2022-10-13T13:48:00;25.23;;;13.00;;
20776;SDS011;10548;47.504;8.248;2022-10-13T13:50:31;23.60;;;11.80;;
20776;SDS011;10548;47.504;8.248;2022-10-13T13:53:00;26.83;;;13.80;;
20776;SDS011;10548;47.504;8.248;2022-10-13T13:55:28;23.17;;;13.83;;
20776;SDS011;10548;47.504;8.248;2022-10-13T13:57:56;30.23;;;13.23;;
20776;SDS011;10548;47.504;8.248;2022-10-13T14:00:24;23.23;;;12.40;;
20776;SDS011;10548;47.504;8.248;2022-10-13T14:02:53;22.97;;;13.20;;
20776;SDS011;10548;47.504;8.248;2022-10-13T14:05:21;28.77;;;13.90;;
20776;SDS011;10548;47.504;8.248;2022-10-13T14:07:51;29.43;;;12.23;;
20776;SDS011;10548;47.504;8.248;2022-10-13T14:10:19;27.07;;;11.80;;
20776;SDS011;10548;47.504;8.248;2022-10-13T14:12:46;24.97;;;13.10;;
20776;SDS011;10548;47.504;8.248;2022-10-13T14:15:13;24.47;;;13.20;;
20776;SDS011;10548;47.504;8.248;2022-10-13T14:17:41;23.70;;;13.43;;
20776;SDS011;10548;47.504;8.248;2022-10-13T14:20:10;25.50;;;14.00;;
20776;SDS011;10548;47.504;8.248;2022-10-13T14:22:38;31.40;;;14.83;;
20776;SDS011;10548;47.504;8.248;2022-10-13T14:25:05;27.93;;;14.07;;
20776;SDS011;10548;47.504;8.248;2022-10-13T14:27:33;33.23;;;14.20;;
20776;SDS011;10548;47.504;8.248;2022-10-13T14:30:03;27.77;;;14.40;;
20776;SDS011;10548;47.504;8.248;2022-10-13T14:32:32;23.00;;;11.80;;
20776;SDS011;10548;47.504;8.248;2022-10-13T14:34:59;22.90;;;11.80;;
20776;SDS011;10548;47.504;8.248;2022-10-13T14:37:27;17.87;;;10.87;;
20776;SDS011;10548;47.504;8.248;2022-10-13T14:39:58;44.27;;;12.67;;
20776;SDS011;10548;47.504;8.248;2022-10-13T14:42:26;28.10;;;12.60;;
20776;SDS011;10548;47.504;8.248;2022-10-13T14:44:53;28.33;;;11.80;;
20776;SDS011;10548;47.504;8.248;2022-10-13T14:47:20;28.90;;;12.17;;
20776;SDS011;10548;47.504;8.248;2022-10-13T14:49:48;25.43;;;12.27;;
20776;SDS011;10548;47.504;8.248;2022-10-13T14:52:15;19.07;;;8.80;;
20776;SDS011;10548;47.504;8.248;2022-10-13T14:54:43;11.37;;;6.77;;
20776;SDS011;10548;47.504;8.248;2022-10-13T14:57:10;15.00;;;5.97;;
20776;SDS011;10548;47.504;8.248;2022-10-13T14:59:41;16.40;;;5.47;;
20776;SDS011;10548;47.504;8.248;2022-10-13T15:02:09;22.60;;;5.27;;
20776;SDS011;10548;47.504;8.248;2022-10-13T15:04:39;11.57;;;4.77;;
20776;SDS011;10548;47.504;8.248;2022-10-13T15:07:07;21.20;;;5.10;;
20776;SDS011;10548;47.504;8.248;2022-10-13T15:09:35;9.33;;;5.07;;
20776;SDS011;10548;47.504;8.248;2022-10-13T15:12:18;16.43;;;5.03;;
20776;SDS011;10548;47.504;8.248;2022-10-13T15:14:47;11.57;;;5.30;;
20776;SDS011;10548;47.504;8.248;2022-10-13T15:17:14;12.13;;;5.50;;
20776;SDS011;10548;47.504;8.248;2022-10-13T15:19:41;18.00;;;5.70;;
20776;SDS011;10548;47.504;8.248;2022-10-13T15:22:09;14.57;;;5.27;;
20776;SDS011;10548;47.504;8.248;2022-10-13T15:24:36;15.43;;;4.53;;
20776;SDS011;10548;47.504;8.248;2022-10-13T15:27:04;12.30;;;4.90;;
20776;SDS011;10548;47.504;8.248;2022-10-13T15:29:32;15.50;;;5.10;;
20776;SDS011;10548;47.504;8.248;2022-10-13T15:32:09;17.10;;;6.17;;
20776;SDS011;10548;47.504;8.248;2022-10-13T15:34:39;14.87;;;5.13;;
20776;SDS011;10548;47.504;8.248;2022-10-13T15:37:06;16.33;;;5.10;;
20776;SDS011;10548;47.504;8.248;2022-10-13T15:39:34;9.53;;;4.70;;
20776;SDS011;10548;47.504;8.248;2022-10-13T15:42:02;13.93;;;5.23;;
20776;SDS011;10548;47.504;8.248;2022-10-13T15:44:29;15.53;;;4.77;;
20776;SDS011;10548;47.504;8.248;2022-10-13T15:47:17;9.83;;;5.03;;
20776;SDS011;10548;47.504;8.248;2022-10-13T15:49:44;15.67;;;5.63;;
20776;SDS011;10548;47.504;8.248;2022-10-13T15:52:11;18.97;;;5.90;;
20776;SDS011;10548;47.504;8.248;2022-10-13T15:54:39;11.00;;;4.77;;
20776;SDS011;10548;47.504;8.248;2022-10-13T15:57:06;11.83;;;4.97;;
20776;SDS011;10548;47.504;8.248;2022-10-13T15:59:33;12.80;;;4.80;;
20776;SDS011;10548;47.504;8.248;2022-10-13T16:02:01;12.80;;;4.90;;
20776;SDS011;10548;47.504;8.248;2022-10-13T16:04:28;13.90;;;5.00;;
20776;SDS011;10548;47.504;8.248;2022-10-13T16:07:02;14.17;;;5.47;;
20776;SDS011;10548;47.504;8.248;2022-10-13T16:09:30;13.60;;;5.43;;
20776;SDS011;10548;47.504;8.248;2022-10-13T16:11:57;13.30;;;4.97;;